Time;durP1;ratioP1;P1;durP2;ratioP2;P2;SDS_P1;SDS_P2;PMS_P1;PMS_P2;Temp;Humidity;BMP_temperature;BMP_pressure;BME280_temperature;BME280_humidity;BME280_pressure;Samples;Min_cycle;Max_cycle;Signal;HPM_P1;HPM_P2
2023/09/20 00:02:26;;;;;;;236.70;229.60;;;;;;;;;;5038971;28;20226;-90
2023/09/20 00:04:52;;;;;;;194.30;188.60;;;;;;;;;;5038685;28;20245;-89
2023/09/20 00:07:18;;;;;;;261.13;253.40;;;;;;;;;;5037391;28;20223;-89
2023/09/20 00:09:44;;;;;;;299.53;290.70;;;;;;;;;;5037274;28;20189;-90
2023/09/20 00:12:10;;;;;;;304.87;295.90;;;;;;;;;;5038873;28;20191;-89
2023/09/20 00:14:36;;;;;;;298.07;289.43;;;;;;;;;;5046168;28;20214;-88
2023/09/20 00:17:02;;;;;;;278.97;271.00;;;;;;;;;;5037150;28;20188;-88
2023/09/20 00:19:28;;;;;;;282.30;274.07;;;;;;;;;;5036070;28;20214;-89
2023/09/20 00:21:54;;;;;;;289.50;281.13;;;;;;;;;;5037057;28;20563;-88
2023/09/20 00:24:20;;;;;;;283.43;275.30;;;;;;;;;;5037705;28;20219;-89
2023/09/20 00:26:46;;;;;;;283.17;274.70;;;;;;;;;;5037169;28;20226;-89
2023/09/20 00:29:13;;;;;;;284.33;276.02;;;;;;;;;;5037955;28;20190;-88
2023/09/20 00:31:39;;;;;;;280.40;272.30;;;;;;;;;;5023287;28;20184;-87
2023/09/20 00:34:05;;;;;;;273.83;265.83;;;;;;;;;;5045594;28;20199;-89
2023/09/20 00:36:31;;;;;;;281.13;273.07;;;;;;;;;;5044639;28;20200;-89
2023/09/20 00:38:58;;;;;;;275.43;267.40;;;;;;;;;;5042947;28;20189;-90
2023/09/20 00:41:24;;;;;;;282.00;273.93;;;;;;;;;;5038862;28;20194;-88
2023/09/20 00:43:54;;;;;;;265.85;258.20;;;;;;;;;;5046952;28;20232;-88
2023/09/20 00:46:21;;;;;;;270.80;262.88;;;;;;;;;;5045855;28;20838;-87
2023/09/20 00:48:48;;;;;;;263.52;255.90;;;;;;;;;;5033983;28;20186;-89
2023/09/20 00:51:15;;;;;;;272.67;264.67;;;;;;;;;;5042137;28;20193;-90
2023/09/20 00:53:41;;;;;;;272.53;264.73;;;;;;;;;;5015813;28;20236;-89
2023/09/20 00:56:09;;;;;;;275.53;267.63;;;;;;;;;;5041939;28;20201;-88
2023/09/20 00:58:36;;;;;;;271.13;263.40;;;;;;;;;;5041046;28;20648;-89
2023/09/20 01:01:03;;;;;;;280.23;272.20;;;;;;;;;;5041070;28;20212;-89
2023/09/20 01:03:32;;;;;;;271.07;263.27;;;;;;;;;;5023939;28;20692;-87
2023/09/20 01:05:59;;;;;;;247.97;240.87;;;;;;;;;;5040838;28;20213;-88
2023/09/20 01:08:25;;;;;;;237.27;230.27;;;;;;;;;;5040984;28;20190;-88
2023/09/20 01:10:52;;;;;;;258.93;251.50;;;;;;;;;;5018779;28;20192;-87
2023/09/20 01:13:22;;;;;;;259.07;251.57;;;;;;;;;;5037184;28;20552;-90
2023/09/20 01:15:48;;;;;;;264.30;256.60;;;;;;;;;;5041139;28;20262;-88
2023/09/20 01:18:14;;;;;;;259.37;252.00;;;;;;;;;;5041223;28;20189;-88
2023/09/20 01:20:40;;;;;;;245.23;238.07;;;;;;;;;;5034746;28;20210;-88
2023/09/20 01:23:07;;;;;;;227.53;220.93;;;;;;;;;;5041289;28;20193;-89
2023/09/20 01:25:38;;;;;;;210.83;204.73;;;;;;;;;;5014571;28;20200;-89
2023/09/20 01:28:05;;;;;;;224.80;218.33;;;;;;;;;;5041549;28;20189;-89
2023/09/20 01:30:34;;;;;;;247.73;240.50;;;;;;;;;;5039989;28;20241;-89
2023/09/20 01:33:00;;;;;;;233.40;226.53;;;;;;;;;;5037609;28;20268;-89
2023/09/20 01:35:27;;;;;;;243.33;236.27;;;;;;;;;;5038243;28;20196;-87
2023/09/20 01:37:55;;;;;;;229.83;223.10;;;;;;;;;;5039509;28;20193;-88
2023/09/20 01:40:23;;;;;;;210.27;204.17;;;;;;;;;;5040436;28;20191;-88
2023/09/20 01:42:50;;;;;;;195.23;189.43;;;;;;;;;;5040380;28;20296;-88
2023/09/20 01:45:18;;;;;;;206.73;200.67;;;;;;;;;;5039370;28;20211;-87
2023/09/20 01:47:45;;;;;;;228.37;221.70;;;;;;;;;;5039825;28;20207;-90
2023/09/20 01:50:12;;;;;;;219.87;213.60;;;;;;;;;;5039837;28;20290;-90
2023/09/20 01:52:38;;;;;;;240.27;233.27;;;;;;;;;;5039550;28;20203;-89
2023/09/20 01:55:09;;;;;;;241.07;234.17;;;;;;;;;;5022232;28;20205;-88
2023/09/20 01:57:35;;;;;;;246.03;238.73;;;;;;;;;;5039428;28;20953;-86
2023/09/20 02:00:16;;;;;;;249.37;242.23;;;;;;;;;;5022246;28;20235;-90
2023/09/20 02:02:43;;;;;;;255.77;248.13;;;;;;;;;;5040914;28;20196;-89
2023/09/20 02:05:10;;;;;;;239.37;232.47;;;;;;;;;;5039898;28;20235;-90
2023/09/20 02:07:37;;;;;;;247.53;240.07;;;;;;;;;;5022266;28;20252;-90
2023/09/20 02:10:07;;;;;;;252.73;245.57;;;;;;;;;;5039951;28;20279;-89
2023/09/20 02:12:36;;;;;;;249.30;242.10;;;;;;;;;;5040163;28;20194;-89
2023/09/20 02:15:07;;;;;;;266.33;258.70;;;;;;;;;;5040706;28;20215;-88
2023/09/20 02:17:34;;;;;;;270.03;262.27;;;;;;;;;;5039969;28;20197;-87
2023/09/20 02:20:08;;;;;;;277.83;269.70;;;;;;;;;;5040795;28;20200;-89
2023/09/20 02:22:35;;;;;;;297.07;288.43;;;;;;;;;;5048819;28;20198;-89
2023/09/20 02:25:03;;;;;;;300.23;291.37;;;;;;;;;;5039900;28;20231;-89
2023/09/20 02:27:30;;;;;;;291.87;283.50;;;;;;;;;;5038603;28;20293;-88
2023/09/20 02:29:57;;;;;;;288.50;280.13;;;;;;;;;;5035106;28;20278;-90
2023/09/20 02:32:27;;;;;;;303.63;294.70;;;;;;;;;;5047810;28;20524;-89
2023/09/20 02:34:53;;;;;;;300.57;291.90;;;;;;;;;;5038673;28;20207;-87
2023/09/20 02:37:19;;;;;;;311.90;302.70;;;;;;;;;;5044662;28;20202;-88
2023/09/20 02:39:45;;;;;;;316.97;307.77;;;;;;;;;;5039465;28;20241;-88
2023/09/20 02:42:11;;;;;;;311.73;302.60;;;;;;;;;;5039817;28;20619;-90
2023/09/20 02:44:38;;;;;;;313.87;304.67;;;;;;;;;;5031190;28;20208;-89
2023/09/20 02:47:04;;;;;;;308.97;299.73;;;;;;;;;;5045038;28;20211;-89
2023/09/20 02:49:32;;;;;;;337.40;327.43;;;;;;;;;;5053740;28;20184;-89
2023/09/20 02:51:58;;;;;;;320.93;311.40;;;;;;;;;;5064099;28;20180;-87
2023/09/20 02:54:25;;;;;;;335.17;325.23;;;;;;;;;;5066222;28;20200;-87
2023/09/20 02:56:52;;;;;;;324.23;314.70;;;;;;;;;;5056562;28;20200;-86
2023/09/20 02:59:20;;;;;;;315.07;305.20;;;;;;;;;;5057886;28;20233;-89
2023/09/20 03:01:49;;;;;;;316.43;307.17;;;;;;;;;;5032721;28;20190;-88
2023/09/20 03:04:15;;;;;;;320.23;310.60;;;;;;;;;;5041069;28;20195;-87
2023/09/20 03:06:44;;;;;;;313.63;304.13;;;;;;;;;;5040025;28;20194;-89
2023/09/20 03:09:11;;;;;;;301.30;292.60;;;;;;;;;;5039711;28;20184;-87
2023/09/20 03:11:37;;;;;;;305.83;296.87;;;;;;;;;;5039465;28;20181;-90
2023/09/20 03:14:10;;;;;;;302.40;293.27;;;;;;;;;;5038927;28;20278;-88
2023/09/20 03:16:36;;;;;;;294.67;285.90;;;;;;;;;;5046262;28;20389;-88
2023/09/20 03:19:03;;;;;;;295.47;286.63;;;;;;;;;;5040819;28;20194;-88
2023/09/20 03:21:29;;;;;;;298.20;289.37;;;;;;;;;;5038219;28;20189;-89
2023/09/20 03:23:56;;;;;;;314.00;304.80;;;;;;;;;;5038025;28;20213;-87
2023/09/20 03:26:22;;;;;;;292.80;284.30;;;;;;;;;;5033607;28;20267;-89
2023/09/20 03:28:48;;;;;;;271.70;263.80;;;;;;;;;;5030593;28;20184;-89
2023/09/20 03:31:15;;;;;;;266.77;259.03;;;;;;;;;;5034373;28;20218;-89
2023/09/20 03:33:42;;;;;;;243.53;236.57;;;;;;;;;;5047036;28;20201;-88
2023/09/20 03:36:15;;;;;;;222.77;216.33;;;;;;;;;;5043395;28;20612;-89
2023/09/20 03:38:41;;;;;;;235.50;228.73;;;;;;;;;;5038638;28;20254;-88
2023/09/20 03:41:08;;;;;;;230.73;224.13;;;;;;;;;;5039192;28;20232;-88
2023/09/20 03:43:34;;;;;;;231.27;224.57;;;;;;;;;;5038892;28;20213;-91
2023/09/20 03:46:01;;;;;;;239.23;232.43;;;;;;;;;;5038986;28;20219;-89
2023/09/20 03:48:28;;;;;;;232.47;225.73;;;;;;;;;;5020742;28;20196;-89
2023/09/20 03:50:54;;;;;;;240.10;233.27;;;;;;;;;;5038028;28;20550;-90
2023/09/20 03:53:20;;;;;;;227.00;220.17;;;;;;;;;;5023123;28;20185;-89
2023/09/20 03:55:48;;;;;;;225.17;218.57;;;;;;;;;;5041142;28;20255;-90
2023/09/20 03:58:15;;;;;;;209.13;203.13;;;;;;;;;;5037537;28;20880;-88
2023/09/20 04:00:44;;;;;;;206.43;200.43;;;;;;;;;;5037896;28;20267;-89
2023/09/20 04:03:12;;;;;;;207.07;201.07;;;;;;;;;;5037596;28;20173;-88
2023/09/20 04:05:39;;;;;;;222.53;216.17;;;;;;;;;;5037466;28;20182;-89
2023/09/20 04:08:06;;;;;;;225.20;218.70;;;;;;;;;;5036662;28;20220;-90
2023/09/20 04:10:33;;;;;;;232.03;225.37;;;;;;;;;;5038462;28;20203;-88
2023/09/20 04:12:59;;;;;;;240.67;233.63;;;;;;;;;;5038010;28;20281;-89
2023/09/20 04:15:26;;;;;;;232.43;225.23;;;;;;;;;;5036990;28;20295;-89
2023/09/20 04:17:52;;;;;;;216.00;209.77;;;;;;;;;;5037016;28;20278;-88
2023/09/20 04:20:20;;;;;;;220.20;213.90;;;;;;;;;;5037392;28;20216;-88
2023/09/20 04:22:49;;;;;;;222.57;215.90;;;;;;;;;;5035962;28;20255;-89
2023/09/20 04:25:15;;;;;;;226.37;219.77;;;;;;;;;;5037805;28;20225;-88
2023/09/20 04:27:42;;;;;;;221.47;214.93;;;;;;;;;;5038723;28;20227;-87
2023/09/20 04:30:08;;;;;;;225.03;218.50;;;;;;;;;;5020268;28;20216;-87
2023/09/20 04:32:35;;;;;;;226.10;219.53;;;;;;;;;;5045696;28;20188;-89
2023/09/20 04:35:02;;;;;;;229.93;223.30;;;;;;;;;;5036884;28;20226;-87
2023/09/20 04:37:29;;;;;;;206.37;200.23;;;;;;;;;;5019032;28;20732;-88
2023/09/20 04:39:55;;;;;;;205.57;199.23;;;;;;;;;;5036886;28;20251;-87
2023/09/20 04:42:21;;;;;;;218.93;212.33;;;;;;;;;;5036380;28;20191;-88
2023/09/20 04:44:49;;;;;;;223.10;216.67;;;;;;;;;;5036731;28;20241;-88
2023/09/20 04:47:17;;;;;;;227.27;220.70;;;;;;;;;;5036708;28;20208;-89
2023/09/20 04:49:44;;;;;;;220.30;213.93;;;;;;;;;;5038843;28;20248;-89
2023/09/20 04:52:11;;;;;;;215.30;209.03;;;;;;;;;;5039465;28;20185;-88
2023/09/20 04:54:40;;;;;;;228.10;221.43;;;;;;;;;;5021855;28;20207;-88
2023/09/20 04:57:06;;;;;;;236.17;229.30;;;;;;;;;;5038083;28;20204;-89
2023/09/20 04:59:32;;;;;;;222.87;215.77;;;;;;;;;;5038374;28;20202;-88
2023/09/20 05:01:59;;;;;;;217.43;210.67;;;;;;;;;;5037480;28;20189;-88
2023/09/20 05:04:25;;;;;;;218.00;211.33;;;;;;;;;;5035867;28;20247;-87
2023/09/20 05:06:53;;;;;;;219.70;212.80;;;;;;;;;;5035624;28;20205;-86
2023/09/20 05:09:19;;;;;;;215.83;208.97;;;;;;;;;;5036183;28;20234;-88
2023/09/20 05:11:45;;;;;;;208.07;201.33;;;;;;;;;;5038628;28;20696;-87
2023/09/20 05:14:11;;;;;;;200.63;194.30;;;;;;;;;;5038036;28;20225;-87
2023/09/20 05:16:37;;;;;;;217.93;210.87;;;;;;;;;;5035237;28;20228;-86
2023/09/20 05:19:03;;;;;;;224.17;217.20;;;;;;;;;;5013817;28;20194;-88
2023/09/20 05:21:30;;;;;;;212.50;206.30;;;;;;;;;;5038028;28;20254;-87
2023/09/20 05:23:57;;;;;;;224.47;217.63;;;;;;;;;;5039973;28;20778;-87
2023/09/20 05:26:24;;;;;;;218.07;211.73;;;;;;;;;;5037896;28;20708;-86
2023/09/20 05:28:50;;;;;;;205.13;198.93;;;;;;;;;;5020265;28;20792;-86
2023/09/20 05:31:17;;;;;;;209.73;203.60;;;;;;;;;;5039195;28;20518;-88
2023/09/20 05:33:43;;;;;;;205.50;199.50;;;;;;;;;;5038206;28;20268;-87
2023/09/20 05:36:09;;;;;;;205.67;199.67;;;;;;;;;;5038673;28;20189;-87
2023/09/20 05:38:35;;;;;;;215.83;209.50;;;;;;;;;;5037636;28;20593;-85
2023/09/20 05:41:03;;;;;;;222.83;216.43;;;;;;;;;;5036670;28;20182;-88
2023/09/20 05:43:29;;;;;;;221.13;214.70;;;;;;;;;;5035349;28;20204;-87
2023/09/20 05:45:55;;;;;;;226.10;219.60;;;;;;;;;;5035235;28;20204;-87
2023/09/20 05:48:21;;;;;;;222.13;215.63;;;;;;;;;;5038476;28;20183;-88
2023/09/20 05:50:49;;;;;;;226.60;219.60;;;;;;;;;;5034768;28;20189;-87
2023/09/20 05:53:16;;;;;;;245.30;238.23;;;;;;;;;;5036874;28;20272;-88
2023/09/20 05:55:44;;;;;;;246.67;239.50;;;;;;;;;;5021072;28;20181;-87
2023/09/20 05:58:12;;;;;;;235.33;228.13;;;;;;;;;;5038596;28;20189;-87
2023/09/20 06:00:38;;;;;;;208.13;202.03;;;;;;;;;;5036332;28;20239;-88
2023/09/20 06:03:04;;;;;;;205.07;199.13;;;;;;;;;;5037610;28;20192;-86
2023/09/20 06:05:38;;;;;;;211.97;205.77;;;;;;;;;;5039240;28;20172;-87
2023/09/20 06:08:05;;;;;;;197.60;191.80;;;;;;;;;;5038736;28;20581;-87
2023/09/20 06:10:31;;;;;;;198.87;193.07;;;;;;;;;;5021733;28;20266;-87
2023/09/20 06:12:58;;;;;;;209.97;203.87;;;;;;;;;;5038120;28;20214;-86
2023/09/20 06:15:24;;;;;;;214.07;207.70;;;;;;;;;;5032867;28;20207;-88
2023/09/20 06:17:51;;;;;;;195.63;189.33;;;;;;;;;;5034509;28;20729;-89
2023/09/20 06:20:21;;;;;;;187.70;182.20;;;;;;;;;;5034102;28;20187;-89
2023/09/20 06:22:51;;;;;;;202.00;195.97;;;;;;;;;;5019500;28;20205;-88
2023/09/20 06:25:20;;;;;;;198.37;192.57;;;;;;;;;;5037731;28;20586;-89
2023/09/20 06:27:50;;;;;;;203.73;197.27;;;;;;;;;;5038207;28;20232;-88
2023/09/20 06:30:17;;;;;;;180.53;175.10;;;;;;;;;;5039726;28;20212;-89
2023/09/20 06:32:44;;;;;;;167.17;162.20;;;;;;;;;;5039927;28;20192;-89
2023/09/20 06:35:10;;;;;;;162.30;157.40;;;;;;;;;;5038871;28;20213;-89
2023/09/20 06:37:38;;;;;;;170.10;164.70;;;;;;;;;;5021766;28;20189;-88
2023/09/20 06:40:12;;;;;;;178.37;172.43;;;;;;;;;;5037203;28;20614;-89
2023/09/20 06:42:38;;;;;;;178.40;172.90;;;;;;;;;;5021097;28;20214;-87
2023/09/20 06:45:08;;;;;;;184.83;179.13;;;;;;;;;;5041278;28;20220;-89
2023/09/20 06:47:34;;;;;;;170.67;165.47;;;;;;;;;;5038673;28;20206;-89
2023/09/20 06:50:03;;;;;;;178.23;172.20;;;;;;;;;;5037985;28;20180;-89
2023/09/20 06:52:29;;;;;;;190.50;184.73;;;;;;;;;;5038800;28;20186;-89
2023/09/20 06:54:55;;;;;;;185.50;179.50;;;;;;;;;;5022549;28;20212;-88
2023/09/20 06:57:22;;;;;;;207.63;201.27;;;;;;;;;;5022424;28;20197;-88
2023/09/20 06:59:52;;;;;;;207.70;200.97;;;;;;;;;;5040857;28;20659;-89
2023/09/20 07:02:19;;;;;;;210.27;203.97;;;;;;;;;;5019512;28;20667;-89
2023/09/20 07:04:47;;;;;;;214.23;207.67;;;;;;;;;;5039943;28;20229;-89
2023/09/20 07:07:14;;;;;;;227.07;220.57;;;;;;;;;;5045917;28;20264;-89
2023/09/20 07:09:40;;;;;;;218.63;211.27;;;;;;;;;;5039612;28;20275;-87
2023/09/20 07:12:07;;;;;;;204.30;198.23;;;;;;;;;;5032140;28;20275;-90
2023/09/20 07:14:33;;;;;;;196.23;190.33;;;;;;;;;;5031096;28;20299;-88
2023/09/20 07:17:07;;;;;;;199.00;193.13;;;;;;;;;;5037934;28;20180;-88
2023/09/20 07:19:36;;;;;;;198.13;192.17;;;;;;;;;;5037111;28;20226;-88
2023/09/20 07:22:05;;;;;;;219.10;212.67;;;;;;;;;;5037048;28;20205;-89
2023/09/20 07:24:32;;;;;;;219.57;212.50;;;;;;;;;;5020940;28;20230;-88
2023/09/20 07:26:58;;;;;;;211.67;205.50;;;;;;;;;;5038644;28;20204;-89
2023/09/20 07:29:25;;;;;;;220.73;214.10;;;;;;;;;;5041491;28;20261;-89
2023/09/20 07:31:53;;;;;;;212.70;206.47;;;;;;;;;;5040798;28;20231;-90
2023/09/20 07:34:23;;;;;;;212.77;206.20;;;;;;;;;;5041642;28;20201;-88
2023/09/20 07:36:52;;;;;;;211.85;205.65;;;;;;;;;;5022866;28;20245;-90
2023/09/20 07:39:21;;;;;;;208.27;202.27;;;;;;;;;;5039321;28;20191;-88
2023/09/20 07:41:58;;;;;;;224.07;217.63;;;;;;;;;;5020278;28;20191;-88
2023/09/20 07:44:30;;;;;;;209.63;203.53;;;;;;;;;;5037743;28;20210;-88
2023/09/20 07:46:59;;;;;;;206.30;200.20;;;;;;;;;;5037229;28;20246;-90
2023/09/20 07:49:25;;;;;;;223.75;217.25;;;;;;;;;;5037714;28;20196;-88
2023/09/20 07:51:54;;;;;;;229.30;222.65;;;;;;;;;;5037997;28;20221;-89
2023/09/20 07:54:20;;;;;;;232.30;225.43;;;;;;;;;;5038737;28;20208;-88
2023/09/20 07:56:52;;;;;;;250.48;243.07;;;;;;;;;;5038373;28;20218;-88
2023/09/20 07:59:26;;;;;;;254.75;247.45;;;;;;;;;;5045549;28;20202;-89
2023/09/20 08:01:52;;;;;;;245.40;238.32;;;;;;;;;;5031878;28;20202;-88
2023/09/20 08:04:18;;;;;;;255.05;247.60;;;;;;;;;;5037108;28;20213;-89
2023/09/20 08:06:45;;;;;;;274.52;266.55;;;;;;;;;;5035314;28;20230;-89
2023/09/20 08:09:11;;;;;;;316.03;306.53;;;;;;;;;;5038395;28;20182;-89
2023/09/20 08:11:37;;;;;;;320.70;311.23;;;;;;;;;;5032757;28;20196;-90
2023/09/20 08:14:03;;;;;;;317.13;307.52;;;;;;;;;;5028017;28;20255;-89
2023/09/20 08:16:33;;;;;;;292.70;284.00;;;;;;;;;;5055781;28;20189;-88
2023/09/20 08:21:42;;;;;;;304.80;295.60;;;;;;;;;;5056828;28;20195;-88
2023/09/20 09:00:00;;;;;;;306.10;297.05;;;;;;;;;;5037380;28;20306;-89
2023/09/20 09:02:27;;;;;;;306.67;297.65;;;;;;;;;;5038149;28;20586;-90
2023/09/20 09:04:54;;;;;;;320.52;310.75;;;;;;;;;;5044609;28;20211;-90
2023/09/20 09:07:23;;;;;;;326.20;316.35;;;;;;;;;;5042045;28;20351;-89
2023/09/20 09:09:50;;;;;;;327.80;317.77;;;;;;;;;;5038855;28;20281;-89
2023/09/20 09:12:16;;;;;;;286.17;277.30;;;;;;;;;;5026546;28;20216;-89
2023/09/20 09:14:43;;;;;;;280.77;272.63;;;;;;;;;;5043490;28;20244;-90
2023/09/20 09:17:09;;;;;;;319.10;309.48;;;;;;;;;;5043769;28;20215;-91
2023/09/20 09:19:37;;;;;;;349.30;338.92;;;;;;;;;;5025903;28;20197;-89
2023/09/20 09:22:03;;;;;;;360.95;350.40;;;;;;;;;;5043486;28;20184;-90
2023/09/20 09:24:42;;;;;;;404.25;391.80;;;;;;;;;;5043920;28;20216;-90
2023/09/20 09:27:09;;;;;;;414.00;401.63;;;;;;;;;;5042523;28;20204;-90
2023/09/20 09:29:35;;;;;;;490.20;474.50;;;;;;;;;;5042356;28;20177;-90
2023/09/20 09:32:02;;;;;;;493.67;477.73;;;;;;;;;;5042383;28;20199;-91
2023/09/20 09:34:28;;;;;;;512.85;496.25;;;;;;;;;;5043781;28;20213;-90
2023/09/20 09:36:54;;;;;;;1999.90;999.90;;;;;;;;;;5044871;28;20184;-91
2023/09/20 09:39:20;;;;;;;1269.88;760.90;;;;;;;;;;5045872;28;20199;-91
2023/09/20 09:41:47;;;;;;;1999.90;999.90;;;;;;;;;;5044458;28;20185;-91
2023/09/20 09:44:14;;;;;;;1999.90;999.90;;;;;;;;;;5026982;28;20215;-90
2023/09/20 09:46:43;;;;;;;1999.90;999.90;;;;;;;;;;5041704;28;20204;-90
2023/09/20 09:49:16;;;;;;;1999.90;999.90;;;;;;;;;;5042754;28;20181;-91
2023/09/20 09:51:45;;;;;;;1999.90;999.90;;;;;;;;;;5042317;28;20237;-90
2023/09/20 09:54:12;;;;;;;1999.90;999.90;;;;;;;;;;5041869;28;20227;-90
2023/09/20 09:56:38;;;;;;;1999.90;999.90;;;;;;;;;;5050219;28;20189;-89
2023/09/20 09:59:05;;;;;;;1999.90;999.90;;;;;;;;;;5038552;28;20215;-90
2023/09/20 10:01:36;;;;;;;1999.90;999.90;;;;;;;;;;5031051;28;20187;-89
2023/09/20 10:04:05;;;;;;;1999.90;999.90;;;;;;;;;;5038507;28;20300;-91
2023/09/20 10:06:35;;;;;;;1999.90;999.90;;;;;;;;;;5047549;28;20291;-91
2023/09/20 10:09:04;;;;;;;1999.90;999.90;;;;;;;;;;5034515;28;20177;-91
2023/09/20 10:11:30;;;;;;;1999.90;999.90;;;;;;;;;;5024620;28;20207;-90
2023/09/20 10:14:00;;;;;;;1999.90;999.90;;;;;;;;;;5042351;28;20219;-91
2023/09/20 10:16:28;;;;;;;1999.90;999.90;;;;;;;;;;5043148;28;20176;-90
2023/09/20 10:18:54;;;;;;;1999.90;999.90;;;;;;;;;;5047997;28;20196;-91
2023/09/20 10:21:25;;;;;;;1999.90;999.90;;;;;;;;;;5047902;28;20199;-91
2023/09/20 10:23:55;;;;;;;1999.90;999.90;;;;;;;;;;5042883;28;20212;-91
2023/09/20 10:26:21;;;;;;;1999.90;999.90;;;;;;;;;;5043288;28;20205;-92
2023/09/20 10:28:47;;;;;;;1999.90;999.90;;;;;;;;;;5042501;28;20186;-91
2023/09/20 10:31:17;;;;;;;1999.90;999.90;;;;;;;;;;5043419;28;20248;-91
2023/09/20 10:33:45;;;;;;;1999.90;999.90;;;;;;;;;;5045311;28;20263;-91
2023/09/20 10:36:20;;;;;;;1999.90;999.90;;;;;;;;;;5045023;28;20180;-92
2023/09/20 10:38:46;;;;;;;1999.90;999.90;;;;;;;;;;5042921;28;20240;-91
2023/09/20 10:41:13;;;;;;;1999.90;999.90;;;;;;;;;;5025669;28;20192;-91
2023/09/20 10:43:40;;;;;;;1999.90;999.90;;;;;;;;;;5052766;28;20200;-91
2023/09/20 10:46:07;;;;;;;1999.90;999.90;;;;;;;;;;5044213;28;20247;-91
2023/09/20 10:48:34;;;;;;;1999.90;999.90;;;;;;;;;;5042521;28;20216;-92
2023/09/20 10:51:03;;;;;;;1999.90;999.90;;;;;;;;;;5030096;28;20180;-91
2023/09/20 10:53:44;;;;;;;1999.90;999.90;;;;;;;;;;5042363;28;20209;-91
2023/09/20 10:56:12;;;;;;;1999.90;999.90;;;;;;;;;;5040634;28;20180;-91
2023/09/20 10:58:42;;;;;;;1999.90;999.90;;;;;;;;;;5038621;28;20238;-91
2023/09/20 11:01:10;;;;;;;1999.90;999.90;;;;;;;;;;5035465;28;20659;-91
2023/09/20 11:03:36;;;;;;;1999.90;999.90;;;;;;;;;;5041193;28;20547;-92
2023/09/20 11:06:02;;;;;;;1999.90;999.90;;;;;;;;;;5040966;28;20189;-91
2023/09/20 11:08:28;;;;;;;1999.90;999.90;;;;;;;;;;5041935;28;20258;-91
2023/09/20 11:10:59;;;;;;;1999.90;999.90;;;;;;;;;;5039718;28;20191;-91
2023/09/20 11:13:25;;;;;;;1999.90;999.90;;;;;;;;;;5044705;28;20213;-91
2023/09/20 11:15:51;;;;;;;1999.90;999.90;;;;;;;;;;5041746;28;20185;-90
2023/09/20 11:18:19;;;;;;;1999.90;999.90;;;;;;;;;;5040703;28;20217;-92
2023/09/20 11:20:45;;;;;;;1999.90;999.90;;;;;;;;;;5039834;28;20441;-92
2023/09/20 11:23:13;;;;;;;1999.90;999.90;;;;;;;;;;5041723;28;20193;-92
2023/09/20 11:25:43;;;;;;;1999.90;999.90;;;;;;;;;;5041621;28;20195;-92
2023/09/20 11:28:09;;;;;;;1999.90;999.90;;;;;;;;;;5047537;28;20226;-91
2023/09/20 11:30:36;;;;;;;1999.90;999.90;;;;;;;;;;5043060;28;20196;-90
2023/09/20 11:33:02;;;;;;;1999.90;999.90;;;;;;;;;;5041420;28;20177;-91
2023/09/20 11:35:33;;;;;;;1999.90;999.90;;;;;;;;;;5023603;28;20189;-92
2023/09/20 11:37:59;;;;;;;1999.90;999.90;;;;;;;;;;5041202;28;20669;-91
2023/09/20 11:40:25;;;;;;;1999.90;999.90;;;;;;;;;;5042286;28;20195;-91
2023/09/20 11:42:53;;;;;;;1999.90;999.90;;;;;;;;;;5041717;28;20654;-92
2023/09/20 11:45:19;;;;;;;1999.90;999.90;;;;;;;;;;5043027;28;20263;-91
2023/09/20 11:47:48;;;;;;;1999.90;999.90;;;;;;;;;;5042636;28;20223;-92
2023/09/20 11:50:14;;;;;;;1999.90;999.90;;;;;;;;;;5043223;28;20268;-91
2023/09/20 11:52:47;;;;;;;1999.90;999.90;;;;;;;;;;5042036;28;20191;-91
2023/09/20 11:55:14;;;;;;;1999.90;999.90;;;;;;;;;;5028355;28;20272;-91
2023/09/20 11:57:45;;;;;;;1999.90;999.90;;;;;;;;;;5039410;28;20188;-91
2023/09/20 12:00:16;;;;;;;1999.90;999.90;;;;;;;;;;5044942;28;20195;-90
2023/09/20 12:02:50;;;;;;;1999.90;999.90;;;;;;;;;;5043962;28;20188;-90
2023/09/20 12:05:21;;;;;;;1999.90;999.90;;;;;;;;;;5080182;22;20333;-93
2023/09/20 12:07:58;;;;;;;1999.90;999.90;;;;;;;;;;5041877;28;20244;-94
2023/09/20 12:10:24;;;;;;;1999.90;999.90;;;;;;;;;;5036576;28;20203;-94
2023/09/20 12:12:51;;;;;;;1999.90;999.90;;;;;;;;;;5035210;28;20180;-94
2023/09/20 12:15:18;;;;;;;1999.90;999.90;;;;;;;;;;5033156;28;20180;-92
2023/09/20 12:17:45;;;;;;;1999.90;999.90;;;;;;;;;;5046872;28;20188;-93
2023/09/20 12:20:12;;;;;;;1999.90;999.90;;;;;;;;;;5047042;28;20208;-93
2023/09/20 12:22:39;;;;;;;1999.90;999.90;;;;;;;;;;5041209;28;20173;-94
2023/09/20 12:25:06;;;;;;;1999.90;999.90;;;;;;;;;;5035719;28;20216;-93
2023/09/20 12:27:35;;;;;;;1999.90;999.90;;;;;;;;;;5039779;28;20220;-94
2023/09/20 12:30:01;;;;;;;1999.90;999.90;;;;;;;;;;5041536;28;20223;-95
2023/09/20 12:32:27;;;;;;;1999.90;999.90;;;;;;;;;;5047856;28;20562;-92
2023/09/20 12:34:55;;;;;;;1999.90;999.90;;;;;;;;;;5051180;28;20184;-94
2023/09/20 12:37:21;;;;;;;1999.90;999.90;;;;;;;;;;5050706;28;20250;-94
2023/09/20 12:39:47;;;;;;;1999.90;999.90;;;;;;;;;;5046926;28;20206;-94
2023/09/20 12:42:13;;;;;;;1999.90;999.90;;;;;;;;;;5045130;28;20192;-94
2023/09/20 12:44:39;;;;;;;1999.90;999.90;;;;;;;;;;5045025;28;20259;-94
2023/09/20 12:47:07;;;;;;;1999.90;999.90;;;;;;;;;;5044847;28;20221;-93
2023/09/20 12:49:36;;;;;;;1999.90;999.90;;;;;;;;;;5030291;28;20200;-93
2023/09/20 12:52:03;;;;;;;1999.90;999.90;;;;;;;;;;5052490;28;20181;-95
2023/09/20 12:54:30;;;;;;;1999.90;999.90;;;;;;;;;;5048719;28;20271;-92
2023/09/20 12:56:57;;;;;;;1999.90;999.90;;;;;;;;;;5060717;28;20188;-93
2023/09/20 12:59:27;;;;;;;1999.90;999.90;;;;;;;;;;5044843;28;20617;-93
2023/09/20 13:02:00;;;;;;;1999.90;999.90;;;;;;;;;;5052888;28;20793;-93
2023/09/20 13:04:27;;;;;;;1999.90;999.90;;;;;;;;;;5045858;28;20647;-94
2023/09/20 13:06:53;;;;;;;1999.90;999.90;;;;;;;;;;5027409;28;20408;-92
2023/09/20 13:09:21;;;;;;;1999.90;999.90;;;;;;;;;;5029816;28;20205;-94
2023/09/20 13:11:48;;;;;;;1999.90;999.90;;;;;;;;;;5046118;28;20192;-95
2023/09/20 13:14:19;;;;;;;1999.90;999.90;;;;;;;;;;5045181;28;20184;-93
2023/09/20 13:16:45;;;;;;;1999.90;999.90;;;;;;;;;;5047723;28;20204;-94
2023/09/20 13:19:11;;;;;;;1999.90;999.90;;;;;;;;;;5031250;28;20216;-93
2023/09/20 13:21:37;;;;;;;1999.90;999.90;;;;;;;;;;5046987;28;20189;-95
2023/09/20 13:24:06;;;;;;;1999.90;999.90;;;;;;;;;;5047141;28;20184;-94
2023/09/20 13:26:32;;;;;;;1999.90;999.90;;;;;;;;;;5041919;28;20196;-93
2023/09/20 13:28:58;;;;;;;1999.90;999.90;;;;;;;;;;5032799;28;20205;-94
2023/09/20 13:31:24;;;;;;;1999.90;999.90;;;;;;;;;;5045136;28;20188;-94
2023/09/20 13:33:50;;;;;;;1999.90;999.90;;;;;;;;;;5038128;28;20226;-95
2023/09/20 13:36:16;;;;;;;1999.90;999.90;;;;;;;;;;5045392;28;20188;-94
2023/09/20 13:38:42;;;;;;;1999.90;999.90;;;;;;;;;;5027040;28;20196;-94
2023/09/20 13:41:08;;;;;;;1999.90;999.90;;;;;;;;;;5024460;28;20185;-94
2023/09/20 13:43:34;;;;;;;1999.90;999.90;;;;;;;;;;5041043;28;20240;-95
2023/09/20 13:46:00;;;;;;;1999.90;999.90;;;;;;;;;;5040734;28;20220;-94
2023/09/20 13:48:26;;;;;;;1999.90;999.90;;;;;;;;;;5040815;28;20291;-92
2023/09/20 13:50:52;;;;;;;1999.90;999.90;;;;;;;;;;5049386;28;20256;-92
2023/09/20 13:53:18;;;;;;;1999.90;999.90;;;;;;;;;;5042570;28;20211;-93
2023/09/20 13:55:46;;;;;;;1999.90;999.90;;;;;;;;;;5044486;28;20216;-95
2023/09/20 13:58:12;;;;;;;1999.90;999.90;;;;;;;;;;5047343;28;20260;-95
2023/09/20 14:00:38;;;;;;;1999.90;999.90;;;;;;;;;;5044796;28;20208;-93
2023/09/20 14:03:05;;;;;;;1999.90;999.90;;;;;;;;;;5044712;28;20187;-93
2023/09/20 14:05:31;;;;;;;1999.90;999.90;;;;;;;;;;5045750;28;20219;-93
2023/09/20 14:07:57;;;;;;;1999.90;999.90;;;;;;;;;;5022217;28;20267;-91
2023/09/20 14:10:24;;;;;;;1999.90;999.90;;;;;;;;;;5039049;28;20209;-93
2023/09/20 14:12:51;;;;;;;1999.90;999.90;;;;;;;;;;5052295;28;20176;-93
2023/09/20 14:15:22;;;;;;;1999.90;999.90;;;;;;;;;;5027655;28;20185;-93
2023/09/20 14:17:53;;;;;;;1999.90;999.90;;;;;;;;;;5048560;28;20662;-94
2023/09/20 14:20:23;;;;;;;1999.90;999.90;;;;;;;;;;5046227;28;20208;-93
2023/09/20 14:22:50;;;;;;;1999.90;999.90;;;;;;;;;;5021435;28;20203;-94
2023/09/20 14:25:17;;;;;;;1999.90;999.90;;;;;;;;;;5042321;28;20181;-93
2023/09/20 14:27:43;;;;;;;1999.90;999.90;;;;;;;;;;5041205;28;20205;-93
2023/09/20 14:30:16;;;;;;;1999.90;999.90;;;;;;;;;;5042802;28;20219;-92